Portada
METAR-TAF:

METAR-TAF

Aeroports :

Cienfuegos, Cuba

latitud: 22-09N, longitud: 080-24W, altitud: 39 m

Observació

L'informe es va fer fa 34 minuts, a les 00:59 UTC
Vent 4 kt del Sud-Est, variant entre Est i Sud
Temperatura 25°C
Humitat 89%
Pressió 1016 hPa

METAR: MUCF 270059Z AUTO 13004KT 100V180 25/23 Q1016

Hora: 21:33 (01:33 UTC)

Pronòstic

L'informe es va fer fa 8 hores i 33 minuts, a les 17:00 UTC
Pronòstic vàlid del 26 a les 18 UTC al 27 a les 06 UTC
Vent 8 kt del Sud-Oest
Visibilitat: 9000 m
Núvols disperses a una alçada de 2000 ft
Temporalment
l' 26 a les 19 UTC al 26 a les 23 UTC
Vent 10 kt amb direcció variable
Visibilitat: 5000 m
Núvols disperses a una alçada de 1800 ft, Cumulonimbus.
Cel ennuvolat a una alçada de 2000 ft
tempesta, pluja
Evolucionant progressivament
l' 27 a les 01 UTC al 27 a les 03 UTC
Vent 3 kt amb direcció variable

TAF: MUCF 261700Z 2618/2706 22008KT 9000 SCT020 TEMPO 2619/2623 VRB10KT 5000 TSRA SCT018CB BKN020 BECMG 2701/2703 VRB03KT

Observacions i pronòstics meteorològics de més de 4000 aeroports (METAR i TAF).

Les estacions disponibles són els punts grocs i vermells al mapa.

Posi el ratolí al punt desitjat per veure el nom de l'estació.

Feu clic per veure les observacions i els pronòstics meteorològics.

Per canviar el mapa: feu clic els botons verds amb una creu de color negre per apropar; al botó verd amb un guió per allunyar la imatge; o en les fletxes verdes per a mapes adjacents.


METAR-TAF: